Aérodrome :
LOGIN :

S'inscrire | Disclaimer

   EN    FR    IT 

 










Légende :    VFR   VFR Marginal   IFR   IFR Intensif   IFR Très Intensif
Visi : 
Plafond : 
>= 8 km
>= 3000ft
5 à 8 km
1000 à 3000 ft
1500m à 5 km
500 à 1000 ft
800 à 1500m
200 à 500 ft
< 800m
< 200 ft
Symboles :   Orages  Brouillard  Fortes neiges  Fortes précipitations  Vent > 20 kt
SIGMETs :   Divers  Orages  Givrage  Turbulence  Onde Orograph.  Cendres Volcan.







- Altitude de l'aérodrome : 289 ft
- Code IATA : ZAD


LDZD - Zadar

DERNIER METAR :
  • 211400Z 30009KT 240V350 9999 FEW040 34/19 Q1016 BECMG 05012KT

METARs EXPIRÉS :
  • 211330Z 31010KT 280V360 CAVOK 34/18 Q1016 BECMG 05012KT
  • 211300Z 30009KT 230V010 CAVOK 34/17 Q1016 BECMG 05012KT
  • 211230Z 27011KT 240V330 CAVOK 34/16 Q1017 BECMG FM1300 05012KT
  • 211200Z 28010KT 240V330 CAVOK 33/17 Q1017 NOSIG
  • 211130Z 28010KT 240V320 CAVOK 33/17 Q1017 NOSIG

TAF TAF LDZD
Valide du 21 à 12h jusqu'au 22 à 12h UTC


211125Z 2112/2212 29009KT 9999 FEW050 TX35/2114Z TN20/2204Z
PROB30
TEMPO 2112/2115 VRB09KT TS FEW040CB FEW043TCU
BECMG 2113/2115 05012KT
PROB30
TEMPO 2115/2121 05015G25KT
Pas de NOTAMs connus pour ce terrain.



MET'MAP, la Météo Aéronautique d'un coup d'oeil ! - Copyright ORBIFLY Décembre 2007 - Disclaimer

ORBIFLY MET'MAP TEAM :

Programmation & Développement : Alexandra Zaïnal
Conception & Développement : Baudouin d'Aumeries
Co-Programmation & Développement : Marc-Olivier Méhu
Soutien technique & logistique : Manuel Goepfert

Contact : metmap@orbifly.com




SOURCES & CREDITS :

   NOAA